sensor_id;sensor_type;location;lat;lon;timestamp;pressure;altitude;pressure_sealevel;temperature;humidity
24280;BME280;12395;42.808;23.408;2022-09-03T00:00:32;94868.03;;;17.01;100.00
24280;BME280;12395;42.808;23.408;2022-09-03T00:03:03;94884.56;;;17.15;100.00
24280;BME280;12395;42.808;23.408;2022-09-03T00:05:49;94875.75;;;16.98;100.00
24280;BME280;12395;42.808;23.408;2022-09-03T00:08:22;94891.06;;;17.02;100.00
24280;BME280;12395;42.808;23.408;2022-09-03T00:10:56;94893.16;;;17.00;100.00
24280;BME280;12395;42.808;23.408;2022-09-03T00:13:40;94893.16;;;17.00;100.00
24280;BME280;12395;42.808;23.408;2022-09-03T00:16:09;94900.72;;;17.03;100.00
24280;BME280;12395;42.808;23.408;2022-09-03T00:18:50;94905.88;;;17.10;100.00
24280;BME280;12395;42.808;23.408;2022-09-03T00:21:43;94899.28;;;16.95;100.00
24280;BME280;12395;42.808;23.408;2022-09-03T00:24:12;94894.84;;;16.84;100.00
24280;BME280;12395;42.808;23.408;2022-09-03T00:26:42;94903.00;;;16.94;100.00
24280;BME280;12395;42.808;23.408;2022-09-03T00:29:31;94890.63;;;16.88;100.00
24280;BME280;12395;42.808;23.408;2022-09-03T00:32:06;94896.44;;;16.85;100.00
24280;BME280;12395;42.808;23.408;2022-09-03T00:34:38;94891.81;;;16.81;100.00
24280;BME280;12395;42.808;23.408;2022-09-03T00:37:07;94892.06;;;16.79;100.00
24280;BME280;12395;42.808;23.408;2022-09-03T00:39:32;94873.94;;;16.65;100.00
24280;BME280;12395;42.808;23.408;2022-09-03T00:56:02;94901.91;;;16.57;100.00
24280;BME280;12395;42.808;23.408;2022-09-03T00:58:53;94894.47;;;16.59;100.00
24280;BME280;12395;42.808;23.408;2022-09-03T01:02:23;94900.69;;;16.65;100.00
24280;BME280;12395;42.808;23.408;2022-09-03T01:28:37;94892.84;;;16.58;100.00
24280;BME280;12395;42.808;23.408;2022-09-03T01:34:09;94904.75;;;16.67;100.00
24280;BME280;12395;42.808;23.408;2022-09-03T01:42:13;94911.38;;;16.48;100.00
24280;BME280;12395;42.808;23.408;2022-09-03T01:50:32;94916.50;;;16.50;100.00
24280;BME280;12395;42.808;23.408;2022-09-03T01:55:59;94919.31;;;16.43;100.00
24280;BME280;12395;42.808;23.408;2022-09-03T01:58:32;94930.47;;;16.40;100.00
24280;BME280;12395;42.808;23.408;2022-09-03T02:01:04;94916.94;;;16.47;100.00
24280;BME280;12395;42.808;23.408;2022-09-03T02:03:38;94917.72;;;16.59;100.00
24280;BME280;12395;42.808;23.408;2022-09-03T02:06:08;94910.47;;;16.43;100.00
24280;BME280;12395;42.808;23.408;2022-09-03T02:08:34;94892.56;;;16.27;100.00
24280;BME280;12395;42.808;23.408;2022-09-03T02:11:00;94906.19;;;16.42;100.00
24280;BME280;12395;42.808;23.408;2022-09-03T02:16:04;94904.72;;;16.34;100.00
24280;BME280;12395;42.808;23.408;2022-09-03T02:18:41;94920.03;;;16.39;100.00
24280;BME280;12395;42.808;23.408;2022-09-03T02:21:07;94906.75;;;16.27;100.00
24280;BME280;12395;42.808;23.408;2022-09-03T02:23:34;94931.38;;;16.29;100.00
24280;BME280;12395;42.808;23.408;2022-09-03T02:26:01;94928.63;;;16.24;100.00
24280;BME280;12395;42.808;23.408;2022-09-03T02:28:28;94931.28;;;16.24;100.00
24280;BME280;12395;42.808;23.408;2022-09-03T02:30:54;94907.44;;;16.06;100.00
24280;BME280;12395;42.808;23.408;2022-09-03T02:33:21;94939.72;;;16.16;100.00
24280;BME280;12395;42.808;23.408;2022-09-03T02:35:47;94932.50;;;16.16;100.00
24280;BME280;12395;42.808;23.408;2022-09-03T02:38:17;94923.66;;;16.16;100.00
24280;BME280;12395;42.808;23.408;2022-09-03T02:40:43;94935.50;;;16.20;100.00
24280;BME280;12395;42.808;23.408;2022-09-03T02:43:18;94932.97;;;16.13;100.00
24280;BME280;12395;42.808;23.408;2022-09-03T02:45:47;94906.66;;;16.05;100.00
24280;BME280;12395;42.808;23.408;2022-09-03T02:48:17;94925.25;;;16.00;100.00
24280;BME280;12395;42.808;23.408;2022-09-03T02:50:45;94915.38;;;16.01;100.00
24280;BME280;12395;42.808;23.408;2022-09-03T02:53:11;94939.22;;;16.19;100.00
24280;BME280;12395;42.808;23.408;2022-09-03T02:55:36;94939.56;;;16.23;100.00
24280;BME280;12395;42.808;23.408;2022-09-03T02:58:02;94941.09;;;16.18;100.00
24280;BME280;12395;42.808;23.408;2022-09-03T03:00:31;94935.06;;;16.11;100.00
24280;BME280;12395;42.808;23.408;2022-09-03T03:02:57;94942.38;;;16.16;100.00
24280;BME280;12395;42.808;23.408;2022-09-03T03:05:29;94949.81;;;16.14;100.00
24280;BME280;12395;42.808;23.408;2022-09-03T03:07:58;94936.25;;;16.04;100.00
24280;BME280;12395;42.808;23.408;2022-09-03T03:10:25;94927.69;;;16.02;100.00
24280;BME280;12395;42.808;23.408;2022-09-03T03:12:50;94945.09;;;16.04;100.00
24280;BME280;12395;42.808;23.408;2022-09-03T03:15:16;94942.41;;;16.04;100.00
24280;BME280;12395;42.808;23.408;2022-09-03T03:17:41;94915.38;;;16.01;100.00
24280;BME280;12395;42.808;23.408;2022-09-03T03:20:07;94930.63;;;16.17;100.00
24280;BME280;12395;42.808;23.408;2022-09-03T03:22:33;94931.03;;;16.26;100.00
24280;BME280;12395;42.808;23.408;2022-09-03T03:24:58;94916.69;;;16.15;100.00
24280;BME280;12395;42.808;23.408;2022-09-03T03:27:23;94913.13;;;16.09;100.00
24280;BME280;12395;42.808;23.408;2022-09-03T03:29:50;94924.50;;;16.33;100.00
24280;BME280;12395;42.808;23.408;2022-09-03T03:32:16;94918.00;;;16.29;100.00
24280;BME280;12395;42.808;23.408;2022-09-03T03:34:41;94930.16;;;16.20;100.00
24280;BME280;12395;42.808;23.408;2022-09-03T03:37:06;94919.34;;;16.15;100.00
24280;BME280;12395;42.808;23.408;2022-09-03T03:39:32;94929.91;;;16.21;100.00
24280;BME280;12395;42.808;23.408;2022-09-03T03:41:57;94917.97;;;16.12;100.00
24280;BME280;12395;42.808;23.408;2022-09-03T03:44:23;94923.47;;;16.06;100.00
24280;BME280;12395;42.808;23.408;2022-09-03T03:46:48;94934.16;;;16.06;100.00
24280;BME280;12395;42.808;23.408;2022-09-03T03:49:13;94938.06;;;16.15;100.00
24280;BME280;12395;42.808;23.408;2022-09-03T03:51:39;94905.09;;;15.93;100.00
24280;BME280;12395;42.808;23.408;2022-09-03T03:54:05;94931.16;;;16.02;100.00
24280;BME280;12395;42.808;23.408;2022-09-03T03:56:30;94933.69;;;16.09;100.00
24280;BME280;12395;42.808;23.408;2022-09-03T03:58:58;94911.56;;;15.97;100.00
24280;BME280;12395;42.808;23.408;2022-09-03T04:01:25;94945.63;;;16.18;100.00
24280;BME280;12395;42.808;23.408;2022-09-03T04:03:51;94944.38;;;16.09;100.00
24280;BME280;12395;42.808;23.408;2022-09-03T04:06:19;94943.00;;;16.06;100.00
24280;BME280;12395;42.808;23.408;2022-09-03T04:08:46;94949.00;;;16.13;100.00
24280;BME280;12395;42.808;23.408;2022-09-03T04:11:15;94949.91;;;16.19;100.00
24280;BME280;12395;42.808;23.408;2022-09-03T04:13:41;94941.81;;;16.14;100.00
24280;BME280;12395;42.808;23.408;2022-09-03T04:16:13;94947.16;;;16.14;100.00
24280;BME280;12395;42.808;23.408;2022-09-03T04:18:39;94928.16;;;15.99;100.00
24280;BME280;12395;42.808;23.408;2022-09-03T04:21:05;94945.34;;;16.03;100.00
24280;BME280;12395;42.808;23.408;2022-09-03T04:23:32;94945.25;;;15.98;100.00
24280;BME280;12395;42.808;23.408;2022-09-03T04:25:58;94945.09;;;16.04;100.00
24280;BME280;12395;42.808;23.408;2022-09-03T04:28:24;94944.94;;;16.11;100.00
24280;BME280;12395;42.808;23.408;2022-09-03T04:30:50;94949.31;;;16.17;100.00
24280;BME280;12395;42.808;23.408;2022-09-03T04:33:15;94952.97;;;16.11;100.00
24280;BME280;12395;42.808;23.408;2022-09-03T04:35:41;94951.81;;;16.07;100.00
24280;BME280;12395;42.808;23.408;2022-09-03T04:38:07;94951.16;;;16.00;100.00
24280;BME280;12395;42.808;23.408;2022-09-03T04:40:32;94955.38;;;16.12;100.00
24280;BME280;12395;42.808;23.408;2022-09-03T04:42:58;94963.09;;;16.09;100.00
24280;BME280;12395;42.808;23.408;2022-09-03T04:45:25;94959.13;;;16.11;100.00
24280;BME280;12395;42.808;23.408;2022-09-03T04:47:56;94961.94;;;16.05;100.00
24280;BME280;12395;42.808;23.408;2022-09-03T04:50:21;94955.94;;;15.98;100.00
24280;BME280;12395;42.808;23.408;2022-09-03T04:52:47;94966.16;;;16.01;100.00
24280;BME280;12395;42.808;23.408;2022-09-03T04:55:13;94968.25;;;15.99;100.00
24280;BME280;12395;42.808;23.408;2022-09-03T04:57:39;94991.66;;;16.08;100.00
24280;BME280;12395;42.808;23.408;2022-09-03T05:00:07;94998.41;;;16.11;100.00
24280;BME280;12395;42.808;23.408;2022-09-03T05:02:35;94992.97;;;16.06;100.00
24280;BME280;12395;42.808;23.408;2022-09-03T05:05:00;94998.91;;;16.08;100.00
24280;BME280;12395;42.808;23.408;2022-09-03T05:07:26;95013.56;;;16.05;100.00
24280;BME280;12395;42.808;23.408;2022-09-03T05:09:53;94998.94;;;15.96;100.00
24280;BME280;12395;42.808;23.408;2022-09-03T05:12:18;94983.16;;;15.95;100.00
24280;BME280;12395;42.808;23.408;2022-09-03T05:14:46;95016.44;;;16.04;100.00
24280;BME280;12395;42.808;23.408;2022-09-03T05:17:11;95018.53;;;16.02;100.00
24280;BME280;12395;42.808;23.408;2022-09-03T05:19:37;95003.47;;;15.96;100.00
24280;BME280;12395;42.808;23.408;2022-09-03T05:22:02;95002.50;;;16.02;100.00
24280;BME280;12395;42.808;23.408;2022-09-03T05:24:27;95008.66;;;16.02;100.00
24280;BME280;12395;42.808;23.408;2022-09-03T05:26:53;95014.50;;;15.99;100.00
24280;BME280;12395;42.808;23.408;2022-09-03T05:29:19;95015.72;;;16.08;100.00
24280;BME280;12395;42.808;23.408;2022-09-03T05:31:46;95020.94;;;16.15;100.00
24280;BME280;12395;42.808;23.408;2022-09-03T05:34:11;95015.28;;;16.00;100.00
24280;BME280;12395;42.808;23.408;2022-09-03T05:36:37;95019.59;;;16.01;100.00
24280;BME280;12395;42.808;23.408;2022-09-03T05:39:04;95017.63;;;15.96;100.00
24280;BME280;12395;42.808;23.408;2022-09-03T05:41:29;95029.22;;;16.02;100.00
24280;BME280;12395;42.808;23.408;2022-09-03T05:43:56;95024.47;;;16.04;100.00
24280;BME280;12395;42.808;23.408;2022-09-03T05:46:29;95035.63;;;16.01;100.00
24280;BME280;12395;42.808;23.408;2022-09-03T05:49:02;95022.09;;;15.91;100.00
24280;BME280;12395;42.808;23.408;2022-09-03T05:51:28;95016.75;;;15.91;100.00
24280;BME280;12395;42.808;23.408;2022-09-03T05:53:54;95002.50;;;16.02;100.00
24280;BME280;12395;42.808;23.408;2022-09-03T05:56:22;95028.91;;;16.27;100.00
24280;BME280;12395;42.808;23.408;2022-09-03T05:58:59;95019.50;;;16.24;100.00
24280;BME280;12395;42.808;23.408;2022-09-03T06:01:31;95027.91;;;16.44;100.00
24280;BME280;12395;42.808;23.408;2022-09-03T06:06:28;95029.81;;;16.60;100.00
24280;BME280;12395;42.808;23.408;2022-09-03T06:08:57;95027.09;;;16.72;100.00
24280;BME280;12395;42.808;23.408;2022-09-03T06:11:24;95029.09;;;16.81;100.00
24280;BME280;12395;42.808;23.408;2022-09-03T06:13:54;95009.66;;;16.86;100.00
24280;BME280;12395;42.808;23.408;2022-09-03T06:16:21;95032.38;;;17.17;100.00
24280;BME280;12395;42.808;23.408;2022-09-03T06:18:47;95042.75;;;17.30;100.00
24280;BME280;12395;42.808;23.408;2022-09-03T06:21:13;95037.00;;;17.21;100.00
24280;BME280;12395;42.808;23.408;2022-09-03T06:23:39;95028.06;;;17.16;100.00
24280;BME280;12395;42.808;23.408;2022-09-03T06:26:10;95047.94;;;17.36;100.00
24280;BME280;12395;42.808;23.408;2022-09-03T06:28:37;95032.09;;;17.35;100.00
24280;BME280;12395;42.808;23.408;2022-09-03T06:31:05;95043.88;;;17.50;100.00
24280;BME280;12395;42.808;23.408;2022-09-03T06:33:33;95045.97;;;17.48;100.00
24280;BME280;12395;42.808;23.408;2022-09-03T06:36:00;95052.00;;;17.55;100.00
24280;BME280;12395;42.808;23.408;2022-09-03T06:38:28;95057.28;;;17.50;100.00
24280;BME280;12395;42.808;23.408;2022-09-03T06:40:58;95038.00;;;17.37;100.00
24280;BME280;12395;42.808;23.408;2022-09-03T06:43:27;95043.44;;;17.42;100.00
24280;BME280;12395;42.808;23.408;2022-09-03T06:45:59;95055.72;;;17.54;100.00
24280;BME280;12395;42.808;23.408;2022-09-03T06:48:25;95053.34;;;17.58;100.00
24280;BME280;12395;42.808;23.408;2022-09-03T06:50:58;95041.03;;;17.57;100.00
24280;BME280;12395;42.808;23.408;2022-09-03T06:53:27;95036.88;;;17.66;100.00
24280;BME280;12395;42.808;23.408;2022-09-03T06:55:56;95061.31;;;17.91;100.00
24280;BME280;12395;42.808;23.408;2022-09-03T06:58:22;95043.75;;;18.00;100.00
24280;BME280;12395;42.808;23.408;2022-09-03T07:00:48;95037.75;;;17.93;100.00
24280;BME280;12395;42.808;23.408;2022-09-03T07:03:14;95057.81;;;18.12;100.00
24280;BME280;12395;42.808;23.408;2022-09-03T07:05:42;95056.97;;;18.07;100.00
24280;BME280;12395;42.808;23.408;2022-09-03T07:08:08;95047.63;;;17.88;100.00
24280;BME280;12395;42.808;23.408;2022-09-03T07:10:35;95063.00;;;17.97;100.00
24280;BME280;12395;42.808;23.408;2022-09-03T07:13:02;95049.97;;;17.84;100.00
24280;BME280;12395;42.808;23.408;2022-09-03T07:15:27;95063.44;;;17.89;100.00
24280;BME280;12395;42.808;23.408;2022-09-03T07:17:52;95062.94;;;17.92;100.00
24280;BME280;12395;42.808;23.408;2022-09-03T07:20:18;95061.97;;;17.82;100.00
24280;BME280;12395;42.808;23.408;2022-09-03T07:22:44;95071.47;;;17.89;100.00
24280;BME280;12395;42.808;23.408;2022-09-03T07:25:10;95070.47;;;17.95;100.00
24280;BME280;12395;42.808;23.408;2022-09-03T07:27:35;95079.66;;;17.99;100.00
24280;BME280;12395;42.808;23.408;2022-09-03T07:30:01;95085.09;;;18.04;100.00
24280;BME280;12395;42.808;23.408;2022-09-03T07:32:27;95083.19;;;18.26;100.00
24280;BME280;12395;42.808;23.408;2022-09-03T07:34:53;95086.03;;;18.58;100.00
24280;BME280;12395;42.808;23.408;2022-09-03T07:37:18;95083.13;;;18.91;100.00
24280;BME280;12395;42.808;23.408;2022-09-03T07:39:43;95093.47;;;18.78;100.00
24280;BME280;12395;42.808;23.408;2022-09-03T07:42:10;95105.88;;;18.84;100.00
24280;BME280;12395;42.808;23.408;2022-09-03T07:44:36;95103.41;;;18.77;99.86
24280;BME280;12395;42.808;23.408;2022-09-03T07:47:01;95102.88;;;18.80;100.00
24280;BME280;12395;42.808;23.408;2022-09-03T07:49:27;95111.28;;;18.89;99.53
24280;BME280;12395;42.808;23.408;2022-09-03T07:51:52;95094.59;;;18.82;100.00
24280;BME280;12395;42.808;23.408;2022-09-03T07:54:18;95109.50;;;18.99;98.44
24280;BME280;12395;42.808;23.408;2022-09-03T07:56:45;95112.97;;;18.95;97.60
24280;BME280;12395;42.808;23.408;2022-09-03T07:59:11;95116.91;;;19.14;97.78
24280;BME280;12395;42.808;23.408;2022-09-03T08:01:37;95121.91;;;19.32;96.34
24280;BME280;12395;42.808;23.408;2022-09-03T08:04:02;95108.22;;;19.34;94.40
24280;BME280;12395;42.808;23.408;2022-09-03T08:06:32;95112.16;;;19.53;94.13
24280;BME280;12395;42.808;23.408;2022-09-03T08:09:00;95117.63;;;19.63;95.11
24280;BME280;12395;42.808;23.408;2022-09-03T08:11:27;95125.47;;;19.74;94.37
24280;BME280;12395;42.808;23.408;2022-09-03T08:14:05;95124.44;;;19.80;91.73
24280;BME280;12395;42.808;23.408;2022-09-03T08:16:35;95120.47;;;19.88;90.49
24280;BME280;12395;42.808;23.408;2022-09-03T08:19:01;95118.75;;;20.14;90.00
24280;BME280;12395;42.808;23.408;2022-09-03T08:21:27;95119.56;;;20.19;90.53
24280;BME280;12395;42.808;23.408;2022-09-03T08:23:54;95125.22;;;20.18;87.47
24280;BME280;12395;42.808;23.408;2022-09-03T08:26:28;95116.16;;;20.29;87.92
24280;BME280;12395;42.808;23.408;2022-09-03T08:28:54;95102.00;;;20.48;88.61
24280;BME280;12395;42.808;23.408;2022-09-03T08:31:21;95113.34;;;20.70;85.42
24280;BME280;12395;42.808;23.408;2022-09-03T08:33:49;95125.28;;;21.00;84.27
24280;BME280;12395;42.808;23.408;2022-09-03T08:36:20;95121.22;;;21.02;84.90
24280;BME280;12395;42.808;23.408;2022-09-03T08:38:50;95113.94;;;20.83;83.78
24280;BME280;12395;42.808;23.408;2022-09-03T08:49:12;95104.34;;;21.57;81.77
24280;BME280;12395;42.808;23.408;2022-09-03T08:51:40;95106.22;;;21.72;81.93
24280;BME280;12395;42.808;23.408;2022-09-03T08:54:08;95103.25;;;21.68;81.45
24280;BME280;12395;42.808;23.408;2022-09-03T08:56:38;95104.34;;;21.52;80.19
24280;BME280;12395;42.808;23.408;2022-09-03T08:59:05;95106.22;;;21.36;80.12
24280;BME280;12395;42.808;23.408;2022-09-03T09:01:46;95125.63;;;21.43;79.55
24280;BME280;12395;42.808;23.408;2022-09-03T09:04:28;95128.31;;;21.43;81.28
24280;BME280;12395;42.808;23.408;2022-09-03T09:07:04;95120.25;;;21.33;79.68
24280;BME280;12395;42.808;23.408;2022-09-03T09:21:22;95125.84;;;22.27;77.48
24280;BME280;12395;42.808;23.408;2022-09-03T09:23:49;95111.53;;;22.32;75.80
24280;BME280;12395;42.808;23.408;2022-09-03T09:26:20;95123.91;;;22.43;76.67
24280;BME280;12395;42.808;23.408;2022-09-03T09:28:51;95126.09;;;22.36;74.94
24280;BME280;12395;42.808;23.408;2022-09-03T09:31:19;95121.31;;;21.98;75.33
24280;BME280;12395;42.808;23.408;2022-09-03T09:33:45;95123.47;;;21.91;75.86
24280;BME280;12395;42.808;23.408;2022-09-03T09:36:13;95135.88;;;22.02;77.08
24280;BME280;12395;42.808;23.408;2022-09-03T09:38:44;95120.50;;;22.02;77.09
24280;BME280;12395;42.808;23.408;2022-09-03T09:41:14;95129.53;;;22.52;75.25
24280;BME280;12395;42.808;23.408;2022-09-03T09:43:41;95134.28;;;22.90;72.70
24280;BME280;12395;42.808;23.408;2022-09-03T09:46:21;95133.22;;;22.81;73.26
24280;BME280;12395;42.808;23.408;2022-09-03T09:48:52;95101.16;;;22.64;72.79
24280;BME280;12395;42.808;23.408;2022-09-03T09:56:26;95133.56;;;22.64;72.40
24280;BME280;12395;42.808;23.408;2022-09-03T09:59:03;95123.78;;;22.73;74.66
24280;BME280;12395;42.808;23.408;2022-09-03T10:01:29;95106.44;;;22.84;72.32
24280;BME280;12395;42.808;23.408;2022-09-03T10:03:58;95126.38;;;22.98;72.06
24280;BME280;12395;42.808;23.408;2022-09-03T10:06:26;95134.13;;;23.10;72.36
24280;BME280;12395;42.808;23.408;2022-09-03T10:09:16;95118.09;;;23.29;69.39
24280;BME280;12395;42.808;23.408;2022-09-03T10:11:51;95135.22;;;23.53;68.05
24280;BME280;12395;42.808;23.408;2022-09-03T10:14:27;95128.00;;;23.77;71.67
24280;BME280;12395;42.808;23.408;2022-09-03T10:17:28;95133.91;;;23.84;66.75
24280;BME280;12395;42.808;23.408;2022-09-03T10:20:11;95136.69;;;23.74;67.66
24280;BME280;12395;42.808;23.408;2022-09-03T10:25:45;95125.22;;;23.53;68.70
24280;BME280;12395;42.808;23.408;2022-09-03T10:28:14;95117.06;;;23.20;69.12
24280;BME280;12395;42.808;23.408;2022-09-03T10:33:53;95113.88;;;23.51;71.48
24280;BME280;12395;42.808;23.408;2022-09-03T10:36:24;95133.22;;;23.68;69.74
24280;BME280;12395;42.808;23.408;2022-09-03T10:39:01;95129.00;;;23.86;66.95
24280;BME280;12395;42.808;23.408;2022-09-03T10:42:12;95124.19;;;23.49;68.87
24280;BME280;12395;42.808;23.408;2022-09-03T10:48:01;95129.91;;;23.76;65.94
24280;BME280;12395;42.808;23.408;2022-09-03T10:56:18;95130.16;;;24.37;61.93
24280;BME280;12395;42.808;23.408;2022-09-03T11:07:05;95121.94;;;24.90;57.85
24280;BME280;12395;42.808;23.408;2022-09-03T11:12:23;95111.91;;;24.67;60.95
24280;BME280;12395;42.808;23.408;2022-09-03T11:14:58;95125.94;;;24.74;59.04
24280;BME280;12395;42.808;23.408;2022-09-03T11:17:39;95116.72;;;24.51;59.94
24280;BME280;12395;42.808;23.408;2022-09-03T11:20:11;95123.91;;;24.61;61.58
24280;BME280;12395;42.808;23.408;2022-09-03T11:22:41;95120.41;;;24.60;60.20
24280;BME280;12395;42.808;23.408;2022-09-03T11:25:10;95119.41;;;24.51;60.20
24280;BME280;12395;42.808;23.408;2022-09-03T11:30:07;95123.44;;;24.30;62.86
24280;BME280;12395;42.808;23.408;2022-09-03T11:32:51;95122.53;;;24.16;62.86
24280;BME280;12395;42.808;23.408;2022-09-03T11:38:03;95111.03;;;23.95;63.33
24280;BME280;12395;42.808;23.408;2022-09-03T11:40:36;95131.56;;;24.30;65.52
24280;BME280;12395;42.808;23.408;2022-09-03T11:43:06;95122.41;;;24.26;61.86
24280;BME280;12395;42.808;23.408;2022-09-03T11:47:57;95103.66;;;23.77;62.99
24280;BME280;12395;42.808;23.408;2022-09-03T11:50:33;95094.53;;;23.68;64.14
24280;BME280;12395;42.808;23.408;2022-09-03T11:58:36;95111.41;;;23.89;64.78
24280;BME280;12395;42.808;23.408;2022-09-03T12:01:06;95112.59;;;24.06;65.22
24280;BME280;12395;42.808;23.408;2022-09-03T12:20:45;95078.16;;;24.59;63.09
24280;BME280;12395;42.808;23.408;2022-09-03T12:23:11;95087.38;;;24.82;64.53
24280;BME280;12395;42.808;23.408;2022-09-03T12:25:45;95084.34;;;24.83;61.09
24280;BME280;12395;42.808;23.408;2022-09-03T12:28:16;95083.22;;;25.08;60.14
24280;BME280;12395;42.808;23.408;2022-09-03T12:30:47;95080.47;;;24.89;59.82
24280;BME280;12395;42.808;23.408;2022-09-03T12:33:16;95079.41;;;24.67;59.23
24280;BME280;12395;42.808;23.408;2022-09-03T12:35:42;95079.91;;;24.50;62.00
24280;BME280;12395;42.808;23.408;2022-09-03T12:38:08;95085.47;;;24.59;61.45
24280;BME280;12395;42.808;23.408;2022-09-03T12:40:33;95079.78;;;24.36;60.00
24280;BME280;12395;42.808;23.408;2022-09-03T12:43:15;95089.22;;;24.15;60.82
24280;BME280;12395;42.808;23.408;2022-09-03T12:45:46;95077.03;;;24.18;61.38
24280;BME280;12395;42.808;23.408;2022-09-03T12:48:17;95074.81;;;24.20;60.50
24280;BME280;12395;42.808;23.408;2022-09-03T12:50:44;95087.78;;;24.46;59.78
24280;BME280;12395;42.808;23.408;2022-09-03T12:53:11;95078.50;;;24.76;61.93
24280;BME280;12395;42.808;23.408;2022-09-03T12:58:24;95070.38;;;24.52;59.98
24280;BME280;12395;42.808;23.408;2022-09-03T13:03:46;95061.47;;;24.05;62.81
24280;BME280;12395;42.808;23.408;2022-09-03T13:06:17;95066.47;;;23.88;61.19
24280;BME280;12395;42.808;23.408;2022-09-03T13:08:49;95064.25;;;23.66;63.26
24280;BME280;12395;42.808;23.408;2022-09-03T13:11:20;95053.47;;;23.61;64.60
24280;BME280;12395;42.808;23.408;2022-09-03T13:14:13;95046.78;;;23.82;66.00
24280;BME280;12395;42.808;23.408;2022-09-03T13:30:58;95037.47;;;24.40;58.86
24280;BME280;12395;42.808;23.408;2022-09-03T13:33:42;95035.97;;;24.29;61.10
24280;BME280;12395;42.808;23.408;2022-09-03T13:36:14;95026.63;;;23.93;58.18
24280;BME280;12395;42.808;23.408;2022-09-03T13:38:52;95042.22;;;24.06;58.25
24280;BME280;12395;42.808;23.408;2022-09-03T13:47:06;95032.06;;;24.40;61.29
24280;BME280;12395;42.808;23.408;2022-09-03T13:52:38;95041.66;;;24.09;66.04
24280;BME280;12395;42.808;23.408;2022-09-03T13:55:40;95014.47;;;23.38;67.48
24280;BME280;12395;42.808;23.408;2022-09-03T13:58:10;95030.97;;;23.37;68.21
24280;BME280;12395;42.808;23.408;2022-09-03T14:00:51;95028.59;;;23.25;69.34
24280;BME280;12395;42.808;23.408;2022-09-03T14:12:04;95044.50;;;23.37;69.89
24280;BME280;12395;42.808;23.408;2022-09-03T14:14:55;95033.63;;;23.42;68.83
24280;BME280;12395;42.808;23.408;2022-09-03T14:17:39;95042.22;;;23.49;69.39
24280;BME280;12395;42.808;23.408;2022-09-03T14:23:01;95028.28;;;23.32;69.92
24280;BME280;12395;42.808;23.408;2022-09-03T14:25:28;95019.88;;;23.38;69.41
24280;BME280;12395;42.808;23.408;2022-09-03T14:28:10;95042.34;;;23.34;69.43
24280;BME280;12395;42.808;23.408;2022-09-03T14:30:46;95043.47;;;23.23;70.60
24280;BME280;12395;42.808;23.408;2022-09-03T14:33:23;95048.88;;;22.89;71.57
24280;BME280;12395;42.808;23.408;2022-09-03T14:36:13;95044.31;;;22.84;73.15
24280;BME280;12395;42.808;23.408;2022-09-03T14:39:02;95049.25;;;22.72;73.28
24280;BME280;12395;42.808;23.408;2022-09-03T14:47:16;95024.47;;;22.60;75.27
24280;BME280;12395;42.808;23.408;2022-09-03T14:57:45;95041.59;;;22.31;75.67
24280;BME280;12395;42.808;23.408;2022-09-03T15:00:32;95048.38;;;22.23;76.38
24280;BME280;12395;42.808;23.408;2022-09-03T15:03:28;95041.16;;;22.03;75.46
24280;BME280;12395;42.808;23.408;2022-09-03T15:11:50;95017.78;;;21.38;77.96
24280;BME280;12395;42.808;23.408;2022-09-03T15:14:23;95037.22;;;21.05;78.65
24280;BME280;12395;42.808;23.408;2022-09-03T15:19:52;95045.53;;;20.89;80.94
24280;BME280;12395;42.808;23.408;2022-09-03T15:25:25;95047.34;;;20.48;82.93
24280;BME280;12395;42.808;23.408;2022-09-03T15:33:50;95043.69;;;20.17;84.99
24280;BME280;12395;42.808;23.408;2022-09-03T15:36:19;95053.38;;;20.13;85.61
24280;BME280;12395;42.808;23.408;2022-09-03T15:39:05;95052.31;;;20.14;86.30
24280;BME280;12395;42.808;23.408;2022-09-03T15:41:45;95041.78;;;20.13;86.14
24280;BME280;12395;42.808;23.408;2022-09-03T15:44:13;95040.38;;;19.95;86.32
24280;BME280;12395;42.808;23.408;2022-09-03T15:46:53;95054.06;;;19.88;86.84
24280;BME280;12395;42.808;23.408;2022-09-03T15:57:28;95063.09;;;19.67;88.16
24280;BME280;12395;42.808;23.408;2022-09-03T16:00:20;95061.19;;;19.63;88.56
24280;BME280;12395;42.808;23.408;2022-09-03T16:03:11;95068.88;;;19.49;88.98
24280;BME280;12395;42.808;23.408;2022-09-03T16:05:44;95060.75;;;19.44;88.96
24280;BME280;12395;42.808;23.408;2022-09-03T16:08:22;95058.84;;;19.40;89.86
24280;BME280;12395;42.808;23.408;2022-09-03T16:13:38;95068.44;;;19.31;90.73
24280;BME280;12395;42.808;23.408;2022-09-03T16:16:10;95066.53;;;19.26;91.16
24280;BME280;12395;42.808;23.408;2022-09-03T16:18:52;95060.50;;;19.14;90.51
24280;BME280;12395;42.808;23.408;2022-09-03T16:21:27;95075.56;;;19.15;91.29
24280;BME280;12395;42.808;23.408;2022-09-03T16:24:12;95062.50;;;18.97;92.28
24280;BME280;12395;42.808;23.408;2022-09-03T16:29:12;95077.47;;;18.88;92.18
24280;BME280;12395;42.808;23.408;2022-09-03T16:32:01;95081.19;;;18.82;92.85
24280;BME280;12395;42.808;23.408;2022-09-03T16:40:34;95099.44;;;18.58;93.95
24280;BME280;12395;42.808;23.408;2022-09-03T16:43:19;95097.59;;;18.42;93.34
24280;BME280;12395;42.808;23.408;2022-09-03T16:46:09;95097.53;;;18.37;94.21
24280;BME280;12395;42.808;23.408;2022-09-03T17:04:57;95097.97;;;18.07;96.20
24280;BME280;12395;42.808;23.408;2022-09-03T17:23:37;95125.19;;;17.78;97.78
24280;BME280;12395;42.808;23.408;2022-09-03T17:32:18;95131.03;;;17.58;98.96
24280;BME280;12395;42.808;23.408;2022-09-03T17:48:15;95159.41;;;17.26;100.00